sensor_id;sensor_type;location;lat;lon;timestamp;P1;durP1;ratioP1;P2;durP2;ratioP2
72095;SDS011;59968;51.084;16.748;2022-12-15T00:01:41;51.30;;;18.80;;
72095;SDS011;59968;51.084;16.748;2022-12-15T00:04:28;28.60;;;10.90;;
72095;SDS011;59968;51.084;16.748;2022-12-15T00:07:14;58.10;;;20.90;;
72095;SDS011;59968;51.084;16.748;2022-12-15T00:10:01;52.80;;;18.00;;
72095;SDS011;59968;51.084;16.748;2022-12-15T00:12:48;42.10;;;16.80;;
72095;SDS011;59968;51.084;16.748;2022-12-15T00:15:35;44.20;;;16.20;;
72095;SDS011;59968;51.084;16.748;2022-12-15T00:18:22;61.00;;;22.30;;
72095;SDS011;59968;51.084;16.748;2022-12-15T00:21:09;26.90;;;9.60;;
72095;SDS011;59968;51.084;16.748;2022-12-15T00:23:56;44.10;;;16.90;;
72095;SDS011;59968;51.084;16.748;2022-12-15T00:26:43;39.30;;;13.20;;
72095;SDS011;59968;51.084;16.748;2022-12-15T00:29:30;26.80;;;9.90;;
72095;SDS011;59968;51.084;16.748;2022-12-15T00:32:17;27.70;;;10.70;;
72095;SDS011;59968;51.084;16.748;2022-12-15T00:35:04;28.50;;;11.70;;
72095;SDS011;59968;51.084;16.748;2022-12-15T00:37:51;34.00;;;12.10;;
72095;SDS011;59968;51.084;16.748;2022-12-15T00:40:38;25.30;;;10.80;;
72095;SDS011;59968;51.084;16.748;2022-12-15T00:43:06;28.00;;;9.50;;
72095;SDS011;59968;51.084;16.748;2022-12-15T00:45:39;35.80;;;11.80;;
72095;SDS011;59968;51.084;16.748;2022-12-15T00:48:25;25.50;;;10.70;;
72095;SDS011;59968;51.084;16.748;2022-12-15T00:50:54;27.60;;;11.20;;
72095;SDS011;59968;51.084;16.748;2022-12-15T00:53:22;25.60;;;10.40;;
72095;SDS011;59968;51.084;16.748;2022-12-15T00:56:10;21.70;;;8.70;;
72095;SDS011;59968;51.084;16.748;2022-12-15T00:58:56;19.50;;;6.30;;
72095;SDS011;59968;51.084;16.748;2022-12-15T01:01:43;21.50;;;8.70;;
72095;SDS011;59968;51.084;16.748;2022-12-15T01:04:29;31.70;;;10.90;;
72095;SDS011;59968;51.084;16.748;2022-12-15T01:07:17;21.60;;;7.90;;
72095;SDS011;59968;51.084;16.748;2022-12-15T01:10:03;16.00;;;6.00;;
72095;SDS011;59968;51.084;16.748;2022-12-15T01:12:50;28.50;;;12.10;;
72095;SDS011;59968;51.084;16.748;2022-12-15T01:15:37;31.10;;;11.30;;
72095;SDS011;59968;51.084;16.748;2022-12-15T01:18:24;26.50;;;10.20;;
72095;SDS011;59968;51.084;16.748;2022-12-15T01:21:16;26.50;;;10.40;;
72095;SDS011;59968;51.084;16.748;2022-12-15T01:23:47;23.10;;;9.50;;
72095;SDS011;59968;51.084;16.748;2022-12-15T01:26:15;27.20;;;9.80;;
72095;SDS011;59968;51.084;16.748;2022-12-15T01:28:43;34.80;;;12.50;;
72095;SDS011;59968;51.084;16.748;2022-12-15T01:31:12;26.60;;;9.40;;
72095;SDS011;59968;51.084;16.748;2022-12-15T01:33:41;35.00;;;11.90;;
72095;SDS011;59968;51.084;16.748;2022-12-15T01:36:10;25.60;;;10.60;;
72095;SDS011;59968;51.084;16.748;2022-12-15T01:38:39;32.80;;;13.00;;
72095;SDS011;59968;51.084;16.748;2022-12-15T01:41:08;36.10;;;13.80;;
72095;SDS011;59968;51.084;16.748;2022-12-15T01:43:38;28.40;;;11.20;;
72095;SDS011;59968;51.084;16.748;2022-12-15T01:46:11;41.10;;;16.10;;
72095;SDS011;59968;51.084;16.748;2022-12-15T01:54:02;18.50;;;8.00;;
72095;SDS011;59968;51.084;16.748;2022-12-15T01:56:36;32.50;;;13.00;;
72095;SDS011;59968;51.084;16.748;2022-12-15T01:59:10;47.60;;;17.50;;
72095;SDS011;59968;51.084;16.748;2022-12-15T02:01:43;39.10;;;15.30;;
72095;SDS011;59968;51.084;16.748;2022-12-15T02:04:19;51.30;;;19.90;;
72095;SDS011;59968;51.084;16.748;2022-12-15T02:06:49;31.30;;;13.30;;
72095;SDS011;59968;51.084;16.748;2022-12-15T02:09:19;42.30;;;17.00;;
72095;SDS011;59968;51.084;16.748;2022-12-15T02:17:19;29.60;;;13.00;;
72095;SDS011;59968;51.084;16.748;2022-12-15T02:34:18;37.50;;;15.30;;
72095;SDS011;59968;51.084;16.748;2022-12-15T02:37:11;49.00;;;19.30;;
72095;SDS011;59968;51.084;16.748;2022-12-15T02:39:40;52.80;;;20.00;;
72095;SDS011;59968;51.084;16.748;2022-12-15T02:42:10;45.60;;;17.90;;
72095;SDS011;59968;51.084;16.748;2022-12-15T02:47:44;46.00;;;17.30;;
72095;SDS011;59968;51.084;16.748;2022-12-15T02:50:40;39.30;;;14.60;;
72095;SDS011;59968;51.084;16.748;2022-12-15T02:59:08;37.50;;;12.40;;
72095;SDS011;59968;51.084;16.748;2022-12-15T03:04:16;40.20;;;14.80;;
72095;SDS011;59968;51.084;16.748;2022-12-15T03:06:52;31.70;;;13.10;;
72095;SDS011;59968;51.084;16.748;2022-12-15T03:09:31;33.30;;;13.60;;
72095;SDS011;59968;51.084;16.748;2022-12-15T03:12:00;27.80;;;11.10;;
72095;SDS011;59968;51.084;16.748;2022-12-15T03:14:29;25.50;;;11.50;;
72095;SDS011;59968;51.084;16.748;2022-12-15T03:16:57;32.40;;;12.20;;
72095;SDS011;59968;51.084;16.748;2022-12-15T03:19:25;15.80;;;6.00;;
72095;SDS011;59968;51.084;16.748;2022-12-15T03:21:54;25.20;;;10.50;;
72095;SDS011;59968;51.084;16.748;2022-12-15T03:24:22;29.00;;;10.60;;
72095;SDS011;59968;51.084;16.748;2022-12-15T03:26:50;20.50;;;7.50;;
72095;SDS011;59968;51.084;16.748;2022-12-15T03:29:18;20.30;;;8.50;;
72095;SDS011;59968;51.084;16.748;2022-12-15T03:31:47;26.80;;;10.80;;
72095;SDS011;59968;51.084;16.748;2022-12-15T03:34:17;31.40;;;12.70;;
72095;SDS011;59968;51.084;16.748;2022-12-15T03:36:45;25.90;;;11.00;;
72095;SDS011;59968;51.084;16.748;2022-12-15T03:39:13;23.10;;;8.70;;
72095;SDS011;59968;51.084;16.748;2022-12-15T03:41:41;28.80;;;11.60;;
72095;SDS011;59968;51.084;16.748;2022-12-15T03:44:10;29.90;;;11.80;;
72095;SDS011;59968;51.084;16.748;2022-12-15T03:46:38;33.00;;;13.50;;
72095;SDS011;59968;51.084;16.748;2022-12-15T03:49:06;28.60;;;10.50;;
72095;SDS011;59968;51.084;16.748;2022-12-15T03:51:34;23.50;;;9.90;;
72095;SDS011;59968;51.084;16.748;2022-12-15T03:54:02;22.70;;;9.50;;
72095;SDS011;59968;51.084;16.748;2022-12-15T03:56:31;27.70;;;10.40;;
72095;SDS011;59968;51.084;16.748;2022-12-15T03:58:59;31.20;;;12.40;;
72095;SDS011;59968;51.084;16.748;2022-12-15T04:01:29;29.50;;;12.00;;
72095;SDS011;59968;51.084;16.748;2022-12-15T04:03:59;31.20;;;12.80;;
72095;SDS011;59968;51.084;16.748;2022-12-15T04:06:29;27.10;;;11.50;;
72095;SDS011;59968;51.084;16.748;2022-12-15T04:08:57;35.00;;;13.80;;
72095;SDS011;59968;51.084;16.748;2022-12-15T04:11:25;28.00;;;12.20;;
72095;SDS011;59968;51.084;16.748;2022-12-15T04:13:54;21.00;;;8.70;;
72095;SDS011;59968;51.084;16.748;2022-12-15T04:16:22;29.40;;;11.50;;
72095;SDS011;59968;51.084;16.748;2022-12-15T04:18:50;18.80;;;7.30;;
72095;SDS011;59968;51.084;16.748;2022-12-15T04:21:39;19.40;;;7.90;;
72095;SDS011;59968;51.084;16.748;2022-12-15T04:24:10;26.60;;;11.00;;
72095;SDS011;59968;51.084;16.748;2022-12-15T04:26:56;29.10;;;10.20;;
72095;SDS011;59968;51.084;16.748;2022-12-15T04:29:42;23.30;;;9.40;;
72095;SDS011;59968;51.084;16.748;2022-12-15T04:32:29;30.10;;;12.60;;
72095;SDS011;59968;51.084;16.748;2022-12-15T04:35:17;29.30;;;12.20;;
72095;SDS011;59968;51.084;16.748;2022-12-15T04:38:04;27.50;;;11.30;;
72095;SDS011;59968;51.084;16.748;2022-12-15T04:40:51;29.10;;;12.30;;
72095;SDS011;59968;51.084;16.748;2022-12-15T04:43:37;21.40;;;7.70;;
72095;SDS011;59968;51.084;16.748;2022-12-15T04:46:25;15.20;;;6.70;;
72095;SDS011;59968;51.084;16.748;2022-12-15T04:49:13;20.20;;;8.50;;
72095;SDS011;59968;51.084;16.748;2022-12-15T04:52:00;26.80;;;10.70;;
72095;SDS011;59968;51.084;16.748;2022-12-15T04:54:46;26.50;;;11.80;;
72095;SDS011;59968;51.084;16.748;2022-12-15T04:57:33;23.10;;;11.50;;
72095;SDS011;59968;51.084;16.748;2022-12-15T05:00:20;28.00;;;11.80;;
72095;SDS011;59968;51.084;16.748;2022-12-15T05:03:07;27.20;;;11.30;;
72095;SDS011;59968;51.084;16.748;2022-12-15T05:05:56;14.00;;;6.50;;
72095;SDS011;59968;51.084;16.748;2022-12-15T05:08:42;26.30;;;9.80;;
72095;SDS011;59968;51.084;16.748;2022-12-15T05:11:29;23.80;;;9.80;;
72095;SDS011;59968;51.084;16.748;2022-12-15T05:14:15;22.70;;;9.40;;
72095;SDS011;59968;51.084;16.748;2022-12-15T05:17:02;23.10;;;9.50;;
72095;SDS011;59968;51.084;16.748;2022-12-15T05:19:49;11.00;;;4.70;;
72095;SDS011;59968;51.084;16.748;2022-12-15T05:22:35;14.20;;;6.10;;
72095;SDS011;59968;51.084;16.748;2022-12-15T05:25:21;19.40;;;8.10;;
72095;SDS011;59968;51.084;16.748;2022-12-15T05:28:08;20.70;;;7.90;;
72095;SDS011;59968;51.084;16.748;2022-12-15T05:30:55;21.40;;;10.10;;
72095;SDS011;59968;51.084;16.748;2022-12-15T05:33:41;16.60;;;6.60;;
72095;SDS011;59968;51.084;16.748;2022-12-15T05:36:10;20.30;;;7.30;;
72095;SDS011;59968;51.084;16.748;2022-12-15T05:38:38;12.60;;;4.90;;
72095;SDS011;59968;51.084;16.748;2022-12-15T05:41:08;10.40;;;4.00;;
72095;SDS011;59968;51.084;16.748;2022-12-15T05:43:36;18.00;;;7.30;;
72095;SDS011;59968;51.084;16.748;2022-12-15T05:46:04;12.80;;;5.00;;
72095;SDS011;59968;51.084;16.748;2022-12-15T05:48:34;15.00;;;6.70;;
72095;SDS011;59968;51.084;16.748;2022-12-15T05:51:04;11.90;;;4.70;;
72095;SDS011;59968;51.084;16.748;2022-12-15T05:53:35;12.60;;;4.60;;
72095;SDS011;59968;51.084;16.748;2022-12-15T05:56:06;11.50;;;4.30;;
72095;SDS011;59968;51.084;16.748;2022-12-15T05:58:40;13.00;;;5.40;;
72095;SDS011;59968;51.084;16.748;2022-12-15T06:01:16;9.30;;;4.20;;
72095;SDS011;59968;51.084;16.748;2022-12-15T06:03:47;17.40;;;6.00;;
72095;SDS011;59968;51.084;16.748;2022-12-15T06:06:16;11.10;;;4.10;;
72095;SDS011;59968;51.084;16.748;2022-12-15T06:08:45;10.20;;;3.10;;
72095;SDS011;59968;51.084;16.748;2022-12-15T06:11:18;9.70;;;4.00;;
72095;SDS011;59968;51.084;16.748;2022-12-15T06:13:48;16.20;;;5.90;;
72095;SDS011;59968;51.084;16.748;2022-12-15T06:16:18;10.90;;;4.10;;
72095;SDS011;59968;51.084;16.748;2022-12-15T06:18:49;10.90;;;4.20;;
72095;SDS011;59968;51.084;16.748;2022-12-15T06:21:22;9.50;;;3.90;;
72095;SDS011;59968;51.084;16.748;2022-12-15T06:23:54;8.10;;;3.00;;
72095;SDS011;59968;51.084;16.748;2022-12-15T06:26:24;8.70;;;3.50;;
72095;SDS011;59968;51.084;16.748;2022-12-15T06:28:58;10.80;;;4.60;;
72095;SDS011;59968;51.084;16.748;2022-12-15T06:31:30;13.30;;;5.00;;
72095;SDS011;59968;51.084;16.748;2022-12-15T06:34:01;16.90;;;5.80;;
72095;SDS011;59968;51.084;16.748;2022-12-15T06:36:31;17.70;;;7.10;;
72095;SDS011;59968;51.084;16.748;2022-12-15T06:39:00;10.00;;;3.60;;
72095;SDS011;59968;51.084;16.748;2022-12-15T06:41:32;15.30;;;6.20;;
72095;SDS011;59968;51.084;16.748;2022-12-15T06:44:01;11.50;;;4.10;;
72095;SDS011;59968;51.084;16.748;2022-12-15T06:46:31;10.70;;;4.20;;
72095;SDS011;59968;51.084;16.748;2022-12-15T06:49:03;7.90;;;3.40;;
72095;SDS011;59968;51.084;16.748;2022-12-15T06:51:31;11.40;;;4.30;;
72095;SDS011;59968;51.084;16.748;2022-12-15T06:54:00;14.80;;;4.40;;
72095;SDS011;59968;51.084;16.748;2022-12-15T06:56:31;14.90;;;5.70;;
72095;SDS011;59968;51.084;16.748;2022-12-15T06:59:03;15.50;;;5.10;;
72095;SDS011;59968;51.084;16.748;2022-12-15T07:01:34;13.00;;;6.20;;
72095;SDS011;59968;51.084;16.748;2022-12-15T07:04:04;17.30;;;7.50;;
72095;SDS011;59968;51.084;16.748;2022-12-15T07:06:33;14.70;;;6.10;;
72095;SDS011;59968;51.084;16.748;2022-12-15T07:09:06;17.00;;;6.60;;
72095;SDS011;59968;51.084;16.748;2022-12-15T07:11:39;16.90;;;6.70;;
72095;SDS011;59968;51.084;16.748;2022-12-15T07:14:08;9.90;;;4.50;;
72095;SDS011;59968;51.084;16.748;2022-12-15T07:16:39;11.10;;;4.00;;
72095;SDS011;59968;51.084;16.748;2022-12-15T07:19:09;10.30;;;3.60;;
72095;SDS011;59968;51.084;16.748;2022-12-15T07:21:43;13.40;;;5.70;;
72095;SDS011;59968;51.084;16.748;2022-12-15T07:24:13;13.30;;;5.70;;
72095;SDS011;59968;51.084;16.748;2022-12-15T07:26:42;15.10;;;5.10;;
72095;SDS011;59968;51.084;16.748;2022-12-15T07:29:16;12.20;;;5.00;;
72095;SDS011;59968;51.084;16.748;2022-12-15T07:31:50;13.20;;;4.80;;
72095;SDS011;59968;51.084;16.748;2022-12-15T07:34:19;13.70;;;5.40;;
72095;SDS011;59968;51.084;16.748;2022-12-15T07:36:48;11.90;;;4.80;;
72095;SDS011;59968;51.084;16.748;2022-12-15T07:39:20;12.70;;;5.00;;
72095;SDS011;59968;51.084;16.748;2022-12-15T07:41:49;20.30;;;7.70;;
72095;SDS011;59968;51.084;16.748;2022-12-15T07:44:18;12.90;;;4.50;;
72095;SDS011;59968;51.084;16.748;2022-12-15T07:46:47;12.80;;;4.60;;
72095;SDS011;59968;51.084;16.748;2022-12-15T07:49:16;13.40;;;4.50;;
72095;SDS011;59968;51.084;16.748;2022-12-15T07:51:46;13.10;;;5.10;;
72095;SDS011;59968;51.084;16.748;2022-12-15T07:54:17;13.60;;;4.60;;
72095;SDS011;59968;51.084;16.748;2022-12-15T07:56:46;14.50;;;5.80;;
72095;SDS011;59968;51.084;16.748;2022-12-15T07:59:17;11.80;;;4.60;;
72095;SDS011;59968;51.084;16.748;2022-12-15T08:01:46;9.70;;;3.60;;
72095;SDS011;59968;51.084;16.748;2022-12-15T08:04:16;8.50;;;3.70;;
72095;SDS011;59968;51.084;16.748;2022-12-15T08:06:45;11.20;;;4.50;;
72095;SDS011;59968;51.084;16.748;2022-12-15T08:09:14;14.60;;;4.70;;
72095;SDS011;59968;51.084;16.748;2022-12-15T08:11:44;17.20;;;7.20;;
72095;SDS011;59968;51.084;16.748;2022-12-15T08:14:13;15.00;;;5.10;;
72095;SDS011;59968;51.084;16.748;2022-12-15T08:16:46;12.30;;;4.70;;
72095;SDS011;59968;51.084;16.748;2022-12-15T08:19:16;13.10;;;5.50;;
72095;SDS011;59968;51.084;16.748;2022-12-15T08:21:46;9.10;;;3.70;;
72095;SDS011;59968;51.084;16.748;2022-12-15T08:24:15;14.40;;;6.30;;
72095;SDS011;59968;51.084;16.748;2022-12-15T08:26:45;15.10;;;5.90;;
72095;SDS011;59968;51.084;16.748;2022-12-15T08:29:17;20.50;;;8.10;;
72095;SDS011;59968;51.084;16.748;2022-12-15T08:32:06;21.10;;;8.00;;
72095;SDS011;59968;51.084;16.748;2022-12-15T08:34:36;24.30;;;9.20;;
72095;SDS011;59968;51.084;16.748;2022-12-15T08:37:06;11.40;;;4.50;;
72095;SDS011;59968;51.084;16.748;2022-12-15T08:39:35;9.60;;;4.00;;
72095;SDS011;59968;51.084;16.748;2022-12-15T08:42:04;17.90;;;7.70;;
72095;SDS011;59968;51.084;16.748;2022-12-15T08:44:32;15.90;;;7.10;;
72095;SDS011;59968;51.084;16.748;2022-12-15T08:47:01;18.80;;;8.40;;
72095;SDS011;59968;51.084;16.748;2022-12-15T08:49:31;19.10;;;7.50;;
72095;SDS011;59968;51.084;16.748;2022-12-15T08:52:00;18.60;;;7.80;;
72095;SDS011;59968;51.084;16.748;2022-12-15T08:54:29;18.00;;;6.70;;
72095;SDS011;59968;51.084;16.748;2022-12-15T08:56:59;14.50;;;6.50;;
72095;SDS011;59968;51.084;16.748;2022-12-15T08:59:28;13.70;;;5.00;;
72095;SDS011;59968;51.084;16.748;2022-12-15T09:01:57;20.10;;;8.30;;
72095;SDS011;59968;51.084;16.748;2022-12-15T09:04:27;19.40;;;7.40;;
72095;SDS011;59968;51.084;16.748;2022-12-15T09:06:55;18.90;;;8.00;;
72095;SDS011;59968;51.084;16.748;2022-12-15T09:09:24;19.30;;;7.60;;
72095;SDS011;59968;51.084;16.748;2022-12-15T09:11:53;22.20;;;8.50;;
72095;SDS011;59968;51.084;16.748;2022-12-15T09:14:21;19.00;;;8.60;;
72095;SDS011;59968;51.084;16.748;2022-12-15T09:16:57;25.70;;;9.30;;
72095;SDS011;59968;51.084;16.748;2022-12-15T09:19:26;20.10;;;7.70;;
72095;SDS011;59968;51.084;16.748;2022-12-15T09:21:55;17.00;;;6.30;;
72095;SDS011;59968;51.084;16.748;2022-12-15T09:24:23;18.90;;;7.40;;
72095;SDS011;59968;51.084;16.748;2022-12-15T09:27:02;19.50;;;8.00;;
72095;SDS011;59968;51.084;16.748;2022-12-15T09:29:31;28.00;;;10.40;;
72095;SDS011;59968;51.084;16.748;2022-12-15T09:32:01;23.90;;;10.10;;
72095;SDS011;59968;51.084;16.748;2022-12-15T09:34:37;28.60;;;10.50;;
72095;SDS011;59968;51.084;16.748;2022-12-15T09:37:06;17.10;;;7.10;;
72095;SDS011;59968;51.084;16.748;2022-12-15T09:39:35;21.20;;;8.50;;
72095;SDS011;59968;51.084;16.748;2022-12-15T09:42:04;18.30;;;6.60;;
72095;SDS011;59968;51.084;16.748;2022-12-15T09:44:34;24.80;;;9.80;;
72095;SDS011;59968;51.084;16.748;2022-12-15T09:47:17;29.70;;;10.20;;
72095;SDS011;59968;51.084;16.748;2022-12-15T09:49:58;26.20;;;11.10;;
72095;SDS011;59968;51.084;16.748;2022-12-15T09:52:31;21.60;;;8.30;;
72095;SDS011;59968;51.084;16.748;2022-12-15T09:55:04;25.00;;;9.10;;
72095;SDS011;59968;51.084;16.748;2022-12-15T09:58:13;23.80;;;9.40;;
72095;SDS011;59968;51.084;16.748;2022-12-15T10:06:26;26.40;;;9.50;;
72095;SDS011;59968;51.084;16.748;2022-12-15T10:09:03;20.80;;;8.60;;
72095;SDS011;59968;51.084;16.748;2022-12-15T10:11:45;24.30;;;10.10;;
72095;SDS011;59968;51.084;16.748;2022-12-15T10:22:27;22.70;;;9.70;;
72095;SDS011;59968;51.084;16.748;2022-12-15T10:25:00;24.40;;;9.60;;
72095;SDS011;59968;51.084;16.748;2022-12-15T10:30:22;23.30;;;9.00;;
72095;SDS011;59968;51.084;16.748;2022-12-15T10:37:57;24.50;;;9.50;;
72095;SDS011;59968;51.084;16.748;2022-12-15T10:43:38;19.80;;;7.60;;
72095;SDS011;59968;51.084;16.748;2022-12-15T10:46:13;16.60;;;7.00;;
72095;SDS011;59968;51.084;16.748;2022-12-15T10:48:48;24.50;;;10.20;;
72095;SDS011;59968;51.084;16.748;2022-12-15T10:56:34;17.70;;;6.80;;
72095;SDS011;59968;51.084;16.748;2022-12-15T11:10:14;23.70;;;10.10;;
72095;SDS011;59968;51.084;16.748;2022-12-15T11:12:53;23.10;;;9.00;;
72095;SDS011;59968;51.084;16.748;2022-12-15T11:15:33;19.00;;;7.10;;
72095;SDS011;59968;51.084;16.748;2022-12-15T11:23:49;18.80;;;7.10;;
72095;SDS011;59968;51.084;16.748;2022-12-15T11:31:52;26.90;;;11.30;;
72095;SDS011;59968;51.084;16.748;2022-12-15T11:34:32;25.90;;;11.10;;
72095;SDS011;59968;51.084;16.748;2022-12-15T11:37:34;25.40;;;10.30;;
72095;SDS011;59968;51.084;16.748;2022-12-15T11:40:19;25.10;;;10.30;;
72095;SDS011;59968;51.084;16.748;2022-12-15T11:46:42;23.70;;;9.80;;
72095;SDS011;59968;51.084;16.748;2022-12-15T11:52:21;25.40;;;12.40;;
72095;SDS011;59968;51.084;16.748;2022-12-15T12:00:50;23.30;;;9.70;;
72095;SDS011;59968;51.084;16.748;2022-12-15T12:03:48;37.30;;;16.50;;
72095;SDS011;59968;51.084;16.748;2022-12-15T12:18:33;25.00;;;9.90;;
72095;SDS011;59968;51.084;16.748;2022-12-15T12:21:03;26.00;;;11.60;;
72095;SDS011;59968;51.084;16.748;2022-12-15T12:26:27;30.60;;;12.60;;
72095;SDS011;59968;51.084;16.748;2022-12-15T12:38:09;25.70;;;10.10;;
72095;SDS011;59968;51.084;16.748;2022-12-15T12:43:08;36.30;;;14.70;;
72095;SDS011;59968;51.084;16.748;2022-12-15T12:45:51;33.70;;;13.00;;
72095;SDS011;59968;51.084;16.748;2022-12-15T12:51:22;30.30;;;11.50;;
72095;SDS011;59968;51.084;16.748;2022-12-15T12:53:59;28.00;;;12.90;;
72095;SDS011;59968;51.084;16.748;2022-12-15T12:56:40;36.70;;;15.70;;
72095;SDS011;59968;51.084;16.748;2022-12-15T13:01:56;32.60;;;13.90;;
72095;SDS011;59968;51.084;16.748;2022-12-15T13:05:02;26.70;;;10.50;;
72095;SDS011;59968;51.084;16.748;2022-12-15T13:08:15;26.00;;;10.80;;
72095;SDS011;59968;51.084;16.748;2022-12-15T13:10:46;25.20;;;10.30;;
72095;SDS011;59968;51.084;16.748;2022-12-15T13:16:00;24.40;;;10.10;;
72095;SDS011;59968;51.084;16.748;2022-12-15T13:19:04;24.10;;;10.00;;
72095;SDS011;59968;51.084;16.748;2022-12-15T13:27:03;42.80;;;18.60;;
72095;SDS011;59968;51.084;16.748;2022-12-15T13:29:33;30.10;;;11.00;;
72095;SDS011;59968;51.084;16.748;2022-12-15T13:32:03;24.30;;;10.10;;
72095;SDS011;59968;51.084;16.748;2022-12-15T13:34:53;16.60;;;6.80;;
72095;SDS011;59968;51.084;16.748;2022-12-15T13:54:03;30.00;;;12.10;;
72095;SDS011;59968;51.084;16.748;2022-12-15T13:56:53;26.20;;;10.00;;
72095;SDS011;59968;51.084;16.748;2022-12-15T14:02:32;25.50;;;11.10;;
72095;SDS011;59968;51.084;16.748;2022-12-15T14:15:53;28.20;;;10.90;;
72095;SDS011;59968;51.084;16.748;2022-12-15T14:18:29;28.80;;;10.90;;
72095;SDS011;59968;51.084;16.748;2022-12-15T14:21:00;23.40;;;9.90;;
72095;SDS011;59968;51.084;16.748;2022-12-15T14:23:43;25.10;;;10.50;;
72095;SDS011;59968;51.084;16.748;2022-12-15T14:26:32;25.80;;;11.30;;
72095;SDS011;59968;51.084;16.748;2022-12-15T14:29:01;27.20;;;12.10;;
72095;SDS011;59968;51.084;16.748;2022-12-15T14:31:32;33.40;;;13.00;;
72095;SDS011;59968;51.084;16.748;2022-12-15T14:34:07;29.90;;;12.80;;
72095;SDS011;59968;51.084;16.748;2022-12-15T14:36:41;31.70;;;13.70;;
72095;SDS011;59968;51.084;16.748;2022-12-15T14:39:22;33.40;;;14.00;;
72095;SDS011;59968;51.084;16.748;2022-12-15T14:41:56;38.20;;;15.40;;
72095;SDS011;59968;51.084;16.748;2022-12-15T14:44:35;39.10;;;15.30;;
72095;SDS011;59968;51.084;16.748;2022-12-15T14:47:07;45.20;;;17.70;;
72095;SDS011;59968;51.084;16.748;2022-12-15T14:49:46;44.20;;;18.30;;
72095;SDS011;59968;51.084;16.748;2022-12-15T14:54:57;38.50;;;15.10;;
72095;SDS011;59968;51.084;16.748;2022-12-15T14:57:42;35.90;;;14.30;;
72095;SDS011;59968;51.084;16.748;2022-12-15T15:05:49;37.50;;;15.30;;
72095;SDS011;59968;51.084;16.748;2022-12-15T15:08:34;38.60;;;16.90;;
72095;SDS011;59968;51.084;16.748;2022-12-15T15:14:02;39.70;;;16.20;;
72095;SDS011;59968;51.084;16.748;2022-12-15T15:16:37;39.20;;;15.70;;
72095;SDS011;59968;51.084;16.748;2022-12-15T15:19:06;38.00;;;15.80;;
72095;SDS011;59968;51.084;16.748;2022-12-15T15:21:47;41.10;;;15.90;;
72095;SDS011;59968;51.084;16.748;2022-12-15T15:26:44;43.60;;;15.50;;
72095;SDS011;59968;51.084;16.748;2022-12-15T15:32:17;38.40;;;15.20;;
72095;SDS011;59968;51.084;16.748;2022-12-15T15:34:47;41.00;;;15.40;;
72095;SDS011;59968;51.084;16.748;2022-12-15T15:39:46;37.20;;;14.40;;
72095;SDS011;59968;51.084;16.748;2022-12-15T15:42:17;38.30;;;13.80;;
72095;SDS011;59968;51.084;16.748;2022-12-15T15:44:46;38.80;;;14.20;;
72095;SDS011;59968;51.084;16.748;2022-12-15T15:47:24;34.30;;;13.40;;
72095;SDS011;59968;51.084;16.748;2022-12-15T15:49:54;37.40;;;14.60;;
72095;SDS011;59968;51.084;16.748;2022-12-15T15:52:27;40.20;;;15.00;;
72095;SDS011;59968;51.084;16.748;2022-12-15T15:54:59;44.10;;;16.80;;
72095;SDS011;59968;51.084;16.748;2022-12-15T15:57:28;38.30;;;15.30;;
72095;SDS011;59968;51.084;16.748;2022-12-15T15:59:57;46.30;;;18.40;;
72095;SDS011;59968;51.084;16.748;2022-12-15T16:02:27;46.40;;;18.20;;
72095;SDS011;59968;51.084;16.748;2022-12-15T16:04:56;41.80;;;17.30;;
72095;SDS011;59968;51.084;16.748;2022-12-15T16:07:26;45.10;;;18.30;;
72095;SDS011;59968;51.084;16.748;2022-12-15T16:09:56;40.70;;;16.30;;
72095;SDS011;59968;51.084;16.748;2022-12-15T16:12:44;40.00;;;15.60;;
72095;SDS011;59968;51.084;16.748;2022-12-15T16:15:17;50.80;;;20.50;;
72095;SDS011;59968;51.084;16.748;2022-12-15T16:17:48;55.80;;;20.60;;
72095;SDS011;59968;51.084;16.748;2022-12-15T16:20:18;66.30;;;23.70;;
72095;SDS011;59968;51.084;16.748;2022-12-15T16:22:50;75.30;;;27.60;;
72095;SDS011;59968;51.084;16.748;2022-12-15T16:25:36;73.00;;;27.20;;
72095;SDS011;59968;51.084;16.748;2022-12-15T16:28:20;71.00;;;24.80;;
72095;SDS011;59968;51.084;16.748;2022-12-15T16:30:52;55.00;;;21.40;;
72095;SDS011;59968;51.084;16.748;2022-12-15T16:33:21;56.20;;;20.80;;
72095;SDS011;59968;51.084;16.748;2022-12-15T16:35:51;47.00;;;18.40;;
72095;SDS011;59968;51.084;16.748;2022-12-15T16:38:23;46.50;;;18.60;;
72095;SDS011;59968;51.084;16.748;2022-12-15T16:40:54;45.10;;;16.10;;
72095;SDS011;59968;51.084;16.748;2022-12-15T16:43:25;45.30;;;16.30;;
72095;SDS011;59968;51.084;16.748;2022-12-15T16:46:03;42.40;;;15.10;;
72095;SDS011;59968;51.084;16.748;2022-12-15T16:48:33;38.10;;;14.30;;
72095;SDS011;59968;51.084;16.748;2022-12-15T16:51:05;38.50;;;14.70;;
72095;SDS011;59968;51.084;16.748;2022-12-15T16:53:37;39.40;;;14.90;;
72095;SDS011;59968;51.084;16.748;2022-12-15T16:56:11;36.40;;;13.50;;
72095;SDS011;59968;51.084;16.748;2022-12-15T16:58:43;37.60;;;14.30;;
72095;SDS011;59968;51.084;16.748;2022-12-15T17:01:20;41.10;;;15.40;;
72095;SDS011;59968;51.084;16.748;2022-12-15T17:03:52;40.80;;;15.00;;
72095;SDS011;59968;51.084;16.748;2022-12-15T17:06:22;47.10;;;16.90;;
72095;SDS011;59968;51.084;16.748;2022-12-15T17:08:53;43.70;;;18.20;;
72095;SDS011;59968;51.084;16.748;2022-12-15T17:11:26;45.50;;;18.00;;
72095;SDS011;59968;51.084;16.748;2022-12-15T17:13:58;51.00;;;19.80;;
72095;SDS011;59968;51.084;16.748;2022-12-15T17:19:04;50.20;;;19.80;;
72095;SDS011;59968;51.084;16.748;2022-12-15T17:21:40;47.40;;;18.20;;
72095;SDS011;59968;51.084;16.748;2022-12-15T17:24:15;51.20;;;20.00;;
72095;SDS011;59968;51.084;16.748;2022-12-15T17:26:47;54.60;;;19.00;;
72095;SDS011;59968;51.084;16.748;2022-12-15T17:29:18;54.10;;;19.80;;
72095;SDS011;59968;51.084;16.748;2022-12-15T17:31:50;55.00;;;20.80;;
72095;SDS011;59968;51.084;16.748;2022-12-15T17:34:24;49.80;;;19.30;;
72095;SDS011;59968;51.084;16.748;2022-12-15T17:37:02;54.90;;;20.10;;
72095;SDS011;59968;51.084;16.748;2022-12-15T17:39:35;47.60;;;18.30;;
72095;SDS011;59968;51.084;16.748;2022-12-15T17:42:16;41.30;;;15.50;;
72095;SDS011;59968;51.084;16.748;2022-12-15T17:44:47;46.10;;;16.90;;
72095;SDS011;59968;51.084;16.748;2022-12-15T17:47:19;45.20;;;16.90;;
72095;SDS011;59968;51.084;16.748;2022-12-15T17:49:48;49.00;;;18.50;;
72095;SDS011;59968;51.084;16.748;2022-12-15T17:54:54;39.20;;;14.80;;
72095;SDS011;59968;51.084;16.748;2022-12-15T17:57:23;41.80;;;16.00;;
72095;SDS011;59968;51.084;16.748;2022-12-15T17:59:53;46.40;;;17.40;;
72095;SDS011;59968;51.084;16.748;2022-12-15T18:02:22;56.60;;;20.90;;
72095;SDS011;59968;51.084;16.748;2022-12-15T18:04:52;59.50;;;20.20;;
72095;SDS011;59968;51.084;16.748;2022-12-15T18:07:22;48.60;;;19.00;;
72095;SDS011;59968;51.084;16.748;2022-12-15T18:09:52;113.70;;;42.10;;
72095;SDS011;59968;51.084;16.748;2022-12-15T18:12:23;81.50;;;28.90;;
72095;SDS011;59968;51.084;16.748;2022-12-15T18:14:54;77.60;;;28.80;;